Vila do Carmo do Tocantins, Brazil
Current Conditions -  °F | °C
As of 12:00 AM on Tuesday 21 Oct 2014 (Local Time) from SBBE Reporting Station
Broken Clouds Broken Clouds  
Wind Chill: 79°   Ceiling: 4000
Heat Index: 82°   Visibility: 6mi
Dew Point: 73°   Wind: 6mph
Humidity: 83%   Direction: 90°E
Pressure: 29.85"   Gusts: NA
Location:  2.45°S, 49.44°W
Report Text: SBBE 210300Z 09005KT 9999 BKN040 BKN100 26/23 Q1011
Loading
Personal Weather Stations






























Interactive Weather Map
Tropical Storm Tracking
New forecast layout! Learn more

10-Day Weather Forecast

Advertisements
Track Severe Weather on mobile